GTT weather

Ganadería Airport
Honda, Tolima Department, Colombia

Public forecast

Using degrees Celsius for public forecast. Weather courtesy of forecast.io.

Closest aviation weather report (METAR) to Ganadería Airport

Report is more than 6 hours old.

Closest report is Mariquita Airport, 7.6 nm (14.0 km) WNW. Retrieved 2020/03/12 15:00 UTC (24 days ago):

SKQU 121500Z 00000KT 5000HZ BKN020 27/26 A2987

Closest aviation forecast (TAF) to Ganadería Airport

Closest forecast is El Dorado International Airport, 46.4 nm (86.0 km) SE. Retrieved 2020/04/05 12:00 UTC (4 hours ago):

TAF SKBO 051030Z 0512/0612 05005KT 9999 SCT020 SCT090 TEMPO 0512/0513 9000 MIFG SCT015 BECMG 0515/0517 13010KT TEMPO 0519/0523 7000 -DZRA SCT018TCU BECMG 0523/0601 04005KT TEMPO 0610/0612 8000 VCFG -DZ SCT013 TX21/0518Z TN10/0610Z